Time;durP1;ratioP1;P1;durP2;ratioP2;P2;SDS_P1;SDS_P2;PMS_P1;PMS_P2;Temp;Humidity;BMP_temperature;BMP_pressure;BME280_temperature;BME280_humidity;BME280_pressure;Samples;Min_cycle;Max_cycle;Signal;HPM_P1;HPM_P2
2024/01/15 00:01:00;;;;;;;32.15;24.40;;;;;;;;;;5106120;27;20086;-60
2024/01/15 00:03:27;;;;;;;20.90;14.13;;;;;;;;;;5105085;27;20469;-60
2024/01/15 00:05:53;;;;;;;12.18;7.82;;;;;;;;;;5105444;27;20048;-59
2024/01/15 00:08:20;;;;;;;21.67;11.85;;;;;;;;;;5105712;27;20052;-57
2024/01/15 00:10:46;;;;;;;14.85;8.25;;;;;;;;;;5105594;27;20551;-60
2024/01/15 00:13:13;;;;;;;13.68;4.25;;;;;;;;;;5105497;27;20084;-57
2024/01/15 00:15:39;;;;;;;15.77;5.55;;;;;;;;;;5106418;27;20442;-60
2024/01/15 00:18:06;;;;;;;17.98;10.32;;;;;;;;;;5105278;27;20083;-58
2024/01/15 00:20:33;;;;;;;10.50;3.38;;;;;;;;;;5105134;27;20122;-59
2024/01/15 00:22:59;;;;;;;13.82;4.30;;;;;;;;;;5105270;27;20083;-59
2024/01/15 00:25:25;;;;;;;17.40;4.70;;;;;;;;;;5105467;27;20047;-58
2024/01/15 00:27:52;;;;;;;10.43;3.63;;;;;;;;;;5105386;27;20076;-59
2024/01/15 00:30:18;;;;;;;8.00;1.65;;;;;;;;;;5104019;28;20113;-58
2024/01/15 00:32:45;;;;;;;6.10;1.40;;;;;;;;;;5105217;27;20159;-61
2024/01/15 00:35:11;;;;;;;10.32;1.70;;;;;;;;;;5105930;27;20083;-57
2024/01/15 00:37:38;;;;;;;9.43;1.67;;;;;;;;;;5104937;27;20056;-59
2024/01/15 00:40:05;;;;;;;9.02;1.60;;;;;;;;;;5105714;27;20052;-58
2024/01/15 00:42:31;;;;;;;7.13;1.50;;;;;;;;;;5104840;27;20059;-58
2024/01/15 00:44:58;;;;;;;12.25;2.35;;;;;;;;;;5103302;27;20052;-59
2024/01/15 00:47:25;;;;;;;11.88;1.98;;;;;;;;;;5105384;27;20568;-59
2024/01/15 00:49:51;;;;;;;8.60;1.65;;;;;;;;;;5104979;27;20056;-60
2024/01/15 00:52:17;;;;;;;9.32;1.70;;;;;;;;;;5104126;27;20064;-59
2024/01/15 00:54:44;;;;;;;6.18;1.80;;;;;;;;;;5104657;27;20052;-60
2024/01/15 00:57:10;;;;;;;7.50;1.35;;;;;;;;;;5104084;27;20548;-60
2024/01/15 00:59:37;;;;;;;9.18;1.60;;;;;;;;;;5105135;27;20127;-60
2024/01/15 01:02:04;;;;;;;15.00;2.50;;;;;;;;;;5104404;27;20062;-57
2024/01/15 01:04:30;;;;;;;5.75;1.42;;;;;;;;;;5105022;27;20048;-58
2024/01/15 01:06:57;;;;;;;8.35;2.50;;;;;;;;;;5104060;27;20048;-58
2024/01/15 01:09:24;;;;;;;7.75;1.40;;;;;;;;;;5104208;27;20052;-59
2024/01/15 01:11:50;;;;;;;5.63;1.35;;;;;;;;;;5104671;27;20102;-59
2024/01/15 01:14:17;;;;;;;9.50;1.85;;;;;;;;;;5105101;27;20084;-60
2024/01/15 01:16:43;;;;;;;10.40;1.85;;;;;;;;;;5104636;27;20051;-58
2024/01/15 01:19:10;;;;;;;9.65;1.58;;;;;;;;;;5105128;27;20082;-59
2024/01/15 01:21:36;;;;;;;6.45;1.50;;;;;;;;;;5104694;27;20056;-59
2024/01/15 01:24:03;;;;;;;6.30;1.20;;;;;;;;;;5104948;27;20139;-60
2024/01/15 01:26:30;;;;;;;12.68;1.98;;;;;;;;;;5104256;27;20056;-59
2024/01/15 01:28:56;;;;;;;14.35;2.55;;;;;;;;;;5103605;28;20052;-60
2024/01/15 01:31:23;;;;;;;15.15;2.30;;;;;;;;;;5104846;27;20052;-59
2024/01/15 01:33:50;;;;;;;8.65;1.75;;;;;;;;;;5104554;27;20520;-59
2024/01/15 01:36:16;;;;;;;8.10;1.98;;;;;;;;;;5104609;28;20055;-59
2024/01/15 01:38:43;;;;;;;13.25;2.42;;;;;;;;;;5103975;27;20520;-58
2024/01/15 01:41:10;;;;;;;12.63;1.88;;;;;;;;;;5104698;28;20098;-59
2024/01/15 01:43:36;;;;;;;12.68;2.33;;;;;;;;;;5104477;27;20143;-59
2024/01/15 01:46:03;;;;;;;9.25;1.48;;;;;;;;;;5104896;27;20170;-58
2024/01/15 01:48:29;;;;;;;6.10;1.50;;;;;;;;;;5104291;27;20056;-58
2024/01/15 01:50:57;;;;;;;13.10;1.30;;;;;;;;;;5103284;27;20056;-60
2024/01/15 01:53:25;;;;;;;18.13;2.53;;;;;;;;;;5104141;27;20044;-57
2024/01/15 01:55:52;;;;;;;6.53;1.70;;;;;;;;;;5104334;27;20055;-60
2024/01/15 01:58:19;;;;;;;7.40;1.33;;;;;;;;;;5104332;27;20044;-60
2024/01/15 02:00:46;;;;;;;9.07;1.50;;;;;;;;;;5104263;27;20176;-60
2024/01/15 02:03:13;;;;;;;9.27;1.48;;;;;;;;;;5103591;27;20426;-58
2024/01/15 02:05:40;;;;;;;10.13;1.65;;;;;;;;;;5104168;27;20052;-60
2024/01/15 02:08:06;;;;;;;7.90;1.45;;;;;;;;;;5104105;27;20127;-60
2024/01/15 02:10:33;;;;;;;5.82;1.35;;;;;;;;;;5104098;27;20347;-60
2024/01/15 02:12:59;;;;;;;23.60;1.60;;;;;;;;;;5104166;27;20055;-59
2024/01/15 02:15:26;;;;;;;4.07;1.00;;;;;;;;;;5104108;27;20052;-59
2024/01/15 02:18:03;;;;;;;3.50;1.05;;;;;;;;;;5103843;27;20075;-58
2024/01/15 02:20:30;;;;;;;8.27;1.13;;;;;;;;;;5103904;27;20052;-59
2024/01/15 02:23:10;;;;;;;6.97;1.35;;;;;;;;;;5103031;27;20170;-60
2024/01/15 02:25:40;;;;;;;6.45;1.00;;;;;;;;;;5103860;27;20540;-60
2024/01/15 02:28:11;;;;;;;7.57;2.15;;;;;;;;;;5106889;27;20521;-59
2024/01/15 02:30:41;;;;;;;11.75;2.03;;;;;;;;;;5107320;27;20087;-58
2024/01/15 02:33:08;;;;;;;8.30;2.05;;;;;;;;;;5107307;27;20155;-58
2024/01/15 02:35:36;;;;;;;7.25;1.52;;;;;;;;;;5107323;27;20075;-59
2024/01/15 02:38:03;;;;;;;6.78;1.30;;;;;;;;;;5107254;27;20048;-59
2024/01/15 02:40:30;;;;;;;6.55;1.80;;;;;;;;;;5107034;27;20052;-59
2024/01/15 02:42:56;;;;;;;3.95;0.95;;;;;;;;;;5107217;27;20098;-59
2024/01/15 02:45:23;;;;;;;4.63;0.90;;;;;;;;;;5107465;27;20506;-59
2024/01/15 02:47:50;;;;;;;4.38;0.63;;;;;;;;;;5106615;27;20136;-59
2024/01/15 02:50:16;;;;;;;2.83;0.70;;;;;;;;;;5106981;27;20102;-59
2024/01/15 02:52:43;;;;;;;1.50;0.45;;;;;;;;;;5106808;27;20414;-58
2024/01/15 02:55:09;;;;;;;3.50;0.60;;;;;;;;;;5107217;27;20063;-59
2024/01/15 02:57:36;;;;;;;8.93;0.50;;;;;;;;;;5106390;27;20056;-58
2024/01/15 03:00:03;;;;;;;5.22;0.77;;;;;;;;;;5106975;27;20048;-60
2024/01/15 03:02:33;;;;;;;2.58;0.93;;;;;;;;;;5106794;27;20059;-60
2024/01/15 03:04:59;;;;;;;7.35;0.88;;;;;;;;;;5106494;27;20110;-60
2024/01/15 03:07:26;;;;;;;8.45;1.33;;;;;;;;;;5106933;27;20129;-59
2024/01/15 03:09:53;;;;;;;5.05;0.80;;;;;;;;;;5107104;27;20052;-60
2024/01/15 03:12:19;;;;;;;2.38;1.02;;;;;;;;;;5106965;27;20135;-60
2024/01/15 03:14:46;;;;;;;4.95;0.60;;;;;;;;;;5106879;27;20109;-60
2024/01/15 03:17:13;;;;;;;4.32;1.10;;;;;;;;;;5105946;27;20050;-57
2024/01/15 03:19:39;;;;;;;5.95;0.68;;;;;;;;;;5106401;27;20055;-59
2024/01/15 03:22:08;;;;;;;9.15;1.10;;;;;;;;;;5106852;27;20048;-58
2024/01/15 03:24:35;;;;;;;6.07;1.17;;;;;;;;;;5106204;27;20052;-60
2024/01/15 03:27:01;;;;;;;4.18;0.75;;;;;;;;;;5106303;27;20505;-59
2024/01/15 03:29:28;;;;;;;4.25;1.00;;;;;;;;;;5105487;27;20052;-59
2024/01/15 03:31:54;;;;;;;3.55;0.52;;;;;;;;;;5106198;27;20052;-60
2024/01/15 03:34:21;;;;;;;6.65;1.13;;;;;;;;;;5105270;27;20063;-59
2024/01/15 03:36:48;;;;;;;8.77;1.52;;;;;;;;;;5105010;27;20052;-59
2024/01/15 03:39:14;;;;;;;8.27;1.00;;;;;;;;;;5105101;27;20232;-59
2024/01/15 03:41:41;;;;;;;4.25;1.08;;;;;;;;;;5106408;27;20129;-59
2024/01/15 03:44:08;;;;;;;9.07;1.27;;;;;;;;;;5106296;28;20102;-58
2024/01/15 03:46:34;;;;;;;5.00;0.93;;;;;;;;;;5105499;27;20486;-59
2024/01/15 03:49:00;;;;;;;6.47;1.17;;;;;;;;;;5106255;27;20478;-59
2024/01/15 03:51:27;;;;;;;4.40;1.50;;;;;;;;;;5105742;27;20082;-59
2024/01/15 03:53:53;;;;;;;3.45;0.95;;;;;;;;;;5106322;27;20142;-59
2024/01/15 03:56:20;;;;;;;3.58;1.25;;;;;;;;;;5106714;27;20044;-58
2024/01/15 03:58:46;;;;;;;4.88;1.10;;;;;;;;;;5105911;27;20055;-60
2024/01/15 04:01:13;;;;;;;9.00;1.60;;;;;;;;;;5105495;27;20132;-57
2024/01/15 04:03:39;;;;;;;7.53;1.30;;;;;;;;;;5105810;27;20056;-57
2024/01/15 04:06:06;;;;;;;2.15;1.45;;;;;;;;;;5105605;27;20058;-59
2024/01/15 04:08:32;;;;;;;8.05;1.25;;;;;;;;;;5105746;27;20137;-59
2024/01/15 04:10:59;;;;;;;7.22;1.30;;;;;;;;;;5105709;27;20076;-60
2024/01/15 04:13:25;;;;;;;7.13;1.63;;;;;;;;;;5106343;27;20591;-58
2024/01/15 04:15:52;;;;;;;2.75;1.00;;;;;;;;;;5105142;27;20506;-61
2024/01/15 04:18:18;;;;;;;11.27;1.65;;;;;;;;;;5105560;27;20056;-61
2024/01/15 04:20:45;;;;;;;9.98;0.90;;;;;;;;;;5105803;27;20063;-59
2024/01/15 04:23:11;;;;;;;8.75;1.05;;;;;;;;;;5106025;27;20056;-60
2024/01/15 04:25:38;;;;;;;11.25;1.02;;;;;;;;;;5105323;27;20149;-60
2024/01/15 04:28:05;;;;;;;7.45;0.93;;;;;;;;;;5106174;27;20052;-60
2024/01/15 04:30:31;;;;;;;2.90;0.80;;;;;;;;;;5105332;27;20106;-59
2024/01/15 04:32:58;;;;;;;6.95;0.60;;;;;;;;;;5106376;27;20052;-60
2024/01/15 04:35:25;;;;;;;8.40;1.33;;;;;;;;;;5106393;27;20489;-60
2024/01/15 04:37:51;;;;;;;4.05;1.35;;;;;;;;;;5105137;27;20082;-60
2024/01/15 04:40:18;;;;;;;7.10;1.45;;;;;;;;;;5105486;27;20562;-59
2024/01/15 04:42:45;;;;;;;8.75;1.30;;;;;;;;;;5105060;27;20045;-60
2024/01/15 04:45:12;;;;;;;9.20;1.50;;;;;;;;;;5105011;27;20062;-59
2024/01/15 04:47:39;;;;;;;5.15;0.98;;;;;;;;;;5105319;27;20101;-60
2024/01/15 04:50:06;;;;;;;5.10;1.35;;;;;;;;;;5105126;27;20048;-61
2024/01/15 04:52:32;;;;;;;7.72;1.02;;;;;;;;;;5105214;27;20056;-59
2024/01/15 04:54:58;;;;;;;5.05;0.98;;;;;;;;;;5105378;27;20152;-60
2024/01/15 04:57:25;;;;;;;7.65;1.23;;;;;;;;;;5106104;27;20045;-59
2024/01/15 04:59:51;;;;;;;5.15;0.85;;;;;;;;;;5105131;27;20051;-59
2024/01/15 05:02:17;;;;;;;10.73;1.30;;;;;;;;;;5105365;27;20529;-59
2024/01/15 05:04:44;;;;;;;7.50;1.10;;;;;;;;;;5104312;27;20052;-59
2024/01/15 05:07:10;;;;;;;3.58;1.02;;;;;;;;;;5105467;27;20044;-59
2024/01/15 05:09:37;;;;;;;6.32;0.95;;;;;;;;;;5104908;27;20084;-59
2024/01/15 05:12:03;;;;;;;9.98;1.00;;;;;;;;;;5105438;27;20117;-60
2024/01/15 05:14:30;;;;;;;2.05;0.80;;;;;;;;;;5104370;27;20056;-60
2024/01/15 05:16:56;;;;;;;10.82;1.40;;;;;;;;;;5104481;27;20048;-59
2024/01/15 05:19:22;;;;;;;7.18;0.82;;;;;;;;;;5105406;27;20056;-60
2024/01/15 05:21:49;;;;;;;5.00;0.95;;;;;;;;;;5104784;27;20052;-60
2024/01/15 05:24:15;;;;;;;6.38;1.10;;;;;;;;;;5104742;27;20048;-57
2024/01/15 05:26:42;;;;;;;5.82;1.17;;;;;;;;;;5104604;27;20054;-60
2024/01/15 05:29:08;;;;;;;3.08;1.00;;;;;;;;;;5104060;27;20055;-60
2024/01/15 05:31:35;;;;;;;6.57;1.58;;;;;;;;;;5104648;27;20058;-59
2024/01/15 05:34:02;;;;;;;9.05;0.90;;;;;;;;;;5105130;27;20055;-60
2024/01/15 05:36:28;;;;;;;7.43;2.22;;;;;;;;;;5105208;27;20139;-60
2024/01/15 05:38:55;;;;;;;4.40;1.05;;;;;;;;;;5104122;27;20506;-59
2024/01/15 05:41:21;;;;;;;11.18;1.33;;;;;;;;;;5103981;27;20052;-58
2024/01/15 05:43:48;;;;;;;6.72;1.00;;;;;;;;;;5104425;27;20510;-61
2024/01/15 05:46:15;;;;;;;5.80;1.13;;;;;;;;;;5104866;27;20052;-59
2024/01/15 05:48:42;;;;;;;3.53;0.93;;;;;;;;;;5104331;27;20141;-58
2024/01/15 05:51:08;;;;;;;7.13;1.63;;;;;;;;;;5104050;27;20575;-58
2024/01/15 05:53:35;;;;;;;8.07;1.70;;;;;;;;;;5103768;27;20114;-57
2024/01/15 05:56:02;;;;;;;10.63;1.15;;;;;;;;;;5104341;27;20469;-60
2024/01/15 05:58:28;;;;;;;8.23;1.58;;;;;;;;;;5103891;27;20139;-59
2024/01/15 06:00:54;;;;;;;9.88;1.23;;;;;;;;;;5102975;27;20521;-59
2024/01/15 06:03:21;;;;;;;7.03;1.65;;;;;;;;;;5103842;27;20544;-59
2024/01/15 06:05:47;;;;;;;13.82;2.40;;;;;;;;;;5104534;28;20101;-59
2024/01/15 06:08:14;;;;;;;5.03;0.95;;;;;;;;;;5103950;27;20048;-57
2024/01/15 06:10:41;;;;;;;4.28;1.30;;;;;;;;;;5102909;27;20048;-60
2024/01/15 06:13:07;;;;;;;5.28;1.20;;;;;;;;;;5103920;27;20144;-59
2024/01/15 06:15:33;;;;;;;8.25;1.30;;;;;;;;;;5103865;27;20090;-58
2024/01/15 06:18:00;;;;;;;7.47;2.05;;;;;;;;;;5103513;27;20514;-59
2024/01/15 06:20:26;;;;;;;1.38;0.98;;;;;;;;;;5103795;28;20051;-60
2024/01/15 06:22:53;;;;;;;5.75;1.38;;;;;;;;;;5103903;27;20477;-58
2024/01/15 06:25:19;;;;;;;8.00;1.30;;;;;;;;;;5104292;27;20147;-57
2024/01/15 06:27:46;;;;;;;8.10;2.38;;;;;;;;;;5104003;28;20051;-58
2024/01/15 06:30:13;;;;;;;5.65;1.42;;;;;;;;;;5104561;27;20525;-59
2024/01/15 06:32:39;;;;;;;7.93;2.47;;;;;;;;;;5104270;27;20155;-59
2024/01/15 06:35:06;;;;;;;8.60;1.35;;;;;;;;;;5104188;27;20052;-59
2024/01/15 06:37:32;;;;;;;5.85;1.92;;;;;;;;;;5103565;27;20510;-59
2024/01/15 06:39:59;;;;;;;9.85;1.77;;;;;;;;;;5094033;28;20052;-59
2024/01/15 06:42:25;;;;;;;9.07;1.67;;;;;;;;;;5103177;27;20052;-60
2024/01/15 06:44:52;;;;;;;9.30;2.13;;;;;;;;;;5104052;27;20110;-59
2024/01/15 06:47:18;;;;;;;7.28;1.70;;;;;;;;;;5100675;27;20048;-59
2024/01/15 06:49:45;;;;;;;2.33;1.58;;;;;;;;;;5092346;27;20060;-60
2024/01/15 06:52:12;;;;;;;10.18;1.80;;;;;;;;;;5083358;28;20056;-59
2024/01/15 06:54:38;;;;;;;4.78;1.80;;;;;;;;;;5082685;28;20056;-59
2024/01/15 06:57:06;;;;;;;5.90;1.75;;;;;;;;;;5083423;28;20106;-59
2024/01/15 06:59:33;;;;;;;4.10;1.38;;;;;;;;;;5088899;27;20052;-57
2024/01/15 07:02:00;;;;;;;3.45;1.38;;;;;;;;;;5102136;28;20533;-59
2024/01/15 07:04:26;;;;;;;4.68;1.67;;;;;;;;;;5102594;27;20052;-58
2024/01/15 07:06:52;;;;;;;4.78;1.55;;;;;;;;;;5103732;27;20146;-60
2024/01/15 07:09:19;;;;;;;7.10;2.33;;;;;;;;;;5102044;27;20500;-61
2024/01/15 07:11:48;;;;;;;5.18;1.60;;;;;;;;;;5110015;27;20575;-58
2024/01/15 07:14:15;;;;;;;3.97;1.42;;;;;;;;;;5113225;27;20491;-59
2024/01/15 07:16:41;;;;;;;2.75;1.30;;;;;;;;;;5110971;27;20464;-58
2024/01/15 07:19:13;;;;;;;3.85;1.65;;;;;;;;;;5111368;27;20147;-58
2024/01/15 07:21:40;;;;;;;7.55;2.30;;;;;;;;;;5122808;27;20141;-59
2024/01/15 07:24:06;;;;;;;6.55;1.73;;;;;;;;;;5105700;27;20078;-58
2024/01/15 07:26:32;;;;;;;3.05;1.33;;;;;;;;;;5106182;27;20059;-59
2024/01/15 07:28:59;;;;;;;4.72;1.63;;;;;;;;;;5106750;27;20044;-60
2024/01/15 07:31:25;;;;;;;4.63;2.30;;;;;;;;;;5106164;27;20530;-59
2024/01/15 07:33:52;;;;;;;4.90;1.60;;;;;;;;;;5106021;27;20052;-59
2024/01/15 07:36:18;;;;;;;6.53;2.13;;;;;;;;;;5106170;27;20524;-60
2024/01/15 07:38:44;;;;;;;6.78;2.67;;;;;;;;;;5114839;27;20140;-60
2024/01/15 07:41:12;;;;;;;5.00;1.63;;;;;;;;;;5115731;27;20566;-60
2024/01/15 07:43:38;;;;;;;10.43;2.25;;;;;;;;;;5110458;27;20591;-60
2024/01/15 07:46:05;;;;;;;3.22;2.03;;;;;;;;;;5105359;27;20490;-60
2024/01/15 07:48:34;;;;;;;3.33;1.58;;;;;;;;;;5105467;27;20048;-59
2024/01/15 07:51:00;;;;;;;4.50;1.83;;;;;;;;;;5106248;27;20051;-59
2024/01/15 07:53:27;;;;;;;5.25;2.00;;;;;;;;;;5105219;27;20052;-60
2024/01/15 07:55:54;;;;;;;3.20;1.67;;;;;;;;;;5105561;27;20060;-59
2024/01/15 07:58:20;;;;;;;4.40;2.30;;;;;;;;;;5105461;27;20056;-57
2024/01/15 08:00:47;;;;;;;7.75;2.72;;;;;;;;;;5105465;28;20084;-59
2024/01/15 08:03:14;;;;;;;7.50;2.00;;;;;;;;;;5105304;27;20164;-57
2024/01/15 08:05:41;;;;;;;5.95;2.90;;;;;;;;;;5104446;27;20056;-58
2024/01/15 08:08:08;;;;;;;4.97;2.33;;;;;;;;;;5105256;27;20560;-60
2024/01/15 08:10:34;;;;;;;5.47;2.10;;;;;;;;;;5104621;28;20059;-59
2024/01/15 08:13:01;;;;;;;6.35;2.10;;;;;;;;;;5105528;27;20110;-57
2024/01/15 08:15:27;;;;;;;3.67;2.10;;;;;;;;;;5105151;27;20506;-60
2024/01/15 08:17:57;;;;;;;8.38;2.60;;;;;;;;;;5104951;28;20871;-58
2024/01/15 08:20:24;;;;;;;6.20;2.63;;;;;;;;;;5125481;27;20052;-57
2024/01/15 08:22:50;;;;;;;9.63;2.72;;;;;;;;;;5105118;27;20517;-58
2024/01/15 08:25:17;;;;;;;5.40;2.70;;;;;;;;;;5123904;27;20058;-59
2024/01/15 08:27:43;;;;;;;11.52;3.20;;;;;;;;;;5125432;27;20384;-58
2024/01/15 08:30:10;;;;;;;5.60;3.05;;;;;;;;;;5111649;27;20640;-58
2024/01/15 08:32:40;;;;;;;9.70;2.97;;;;;;;;;;5105404;27;20051;-57
2024/01/15 08:35:07;;;;;;;5.18;2.17;;;;;;;;;;5105241;27;20063;-57
2024/01/15 08:37:34;;;;;;;7.25;2.33;;;;;;;;;;5104424;27;20529;-58
2024/01/15 08:40:00;;;;;;;3.75;2.40;;;;;;;;;;5105321;27;20055;-59
2024/01/15 08:42:27;;;;;;;6.00;2.13;;;;;;;;;;5102895;27;20081;-59
2024/01/15 08:44:53;;;;;;;5.25;1.92;;;;;;;;;;5100773;27;20912;-58
2024/01/15 08:47:19;;;;;;;5.15;2.25;;;;;;;;;;5079873;27;20124;-57
2024/01/15 08:49:46;;;;;;;3.72;1.92;;;;;;;;;;5102496;27;20498;-58
2024/01/15 08:52:13;;;;;;;5.47;2.33;;;;;;;;;;5102738;27;20060;-58
2024/01/15 08:54:40;;;;;;;9.73;2.72;;;;;;;;;;5103734;27;20713;-60
2024/01/15 08:57:06;;;;;;;6.32;2.03;;;;;;;;;;5102055;27;21644;-61
2024/01/15 08:59:33;;;;;;;6.60;1.50;;;;;;;;;;5117995;27;20047;-59
2024/01/15 09:01:59;;;;;;;6.15;2.30;;;;;;;;;;5108932;27;20533;-56
2024/01/15 09:04:26;;;;;;;4.32;1.70;;;;;;;;;;5102569;27;20056;-58
2024/01/15 09:06:52;;;;;;;3.90;1.55;;;;;;;;;;5103121;27;20102;-59
2024/01/15 09:09:19;;;;;;;6.53;1.83;;;;;;;;;;5103302;27;20048;-58
2024/01/15 09:11:46;;;;;;;7.35;2.30;;;;;;;;;;5103509;27;20059;-59
2024/01/15 09:14:13;;;;;;;4.78;1.83;;;;;;;;;;5103496;27;20055;-58
2024/01/15 09:16:42;;;;;;;6.00;1.55;;;;;;;;;;5104108;27;20054;-59
2024/01/15 09:19:08;;;;;;;12.15;3.00;;;;;;;;;;5103288;27;20516;-58
2024/01/15 09:21:35;;;;;;;10.68;4.85;;;;;;;;;;5103002;27;20055;-59
2024/01/15 09:24:01;;;;;;;10.38;3.42;;;;;;;;;;5103254;27;20161;-59
2024/01/15 09:26:28;;;;;;;18.30;7.55;;;;;;;;;;5102990;27;20052;-58
2024/01/15 09:28:55;;;;;;;16.63;5.78;;;;;;;;;;5103768;27;20502;-58
2024/01/15 09:31:21;;;;;;;17.70;7.22;;;;;;;;;;5103304;27;20052;-58
2024/01/15 09:33:49;;;;;;;10.98;3.53;;;;;;;;;;5108590;27;20471;-59
2024/01/15 09:36:16;;;;;;;9.48;3.60;;;;;;;;;;5111398;27;20056;-58
2024/01/15 09:38:42;;;;;;;12.95;4.53;;;;;;;;;;5104026;27;20843;-59
2024/01/15 09:41:09;;;;;;;8.35;3.72;;;;;;;;;;5103119;27;20486;-58
2024/01/15 09:43:37;;;;;;;5.65;2.75;;;;;;;;;;5102557;27;20113;-59
2024/01/15 09:46:04;;;;;;;6.60;1.70;;;;;;;;;;5102401;27;20516;-56
2024/01/15 09:48:33;;;;;;;5.30;1.75;;;;;;;;;;5101970;27;21311;-58
2024/01/15 09:51:04;;;;;;;6.43;1.80;;;;;;;;;;5102999;27;20056;-58
2024/01/15 09:53:30;;;;;;;5.55;2.00;;;;;;;;;;5104957;27;20049;-59
2024/01/15 09:55:57;;;;;;;5.78;1.50;;;;;;;;;;5110197;27;20056;-58
2024/01/15 09:58:24;;;;;;;4.35;1.33;;;;;;;;;;5102684;27;20135;-57
2024/01/15 10:00:51;;;;;;;15.48;4.57;;;;;;;;;;5103173;27;20102;-56
2024/01/15 10:03:18;;;;;;;8.60;3.38;;;;;;;;;;5102711;27;20921;-59
2024/01/15 10:05:44;;;;;;;7.00;3.47;;;;;;;;;;5102175;28;20060;-59
2024/01/15 10:08:11;;;;;;;12.98;4.57;;;;;;;;;;5102390;27;20113;-59
2024/01/15 10:10:38;;;;;;;13.43;4.18;;;;;;;;;;5102184;27;20582;-58
2024/01/15 10:13:06;;;;;;;6.90;2.80;;;;;;;;;;5102888;27;20511;-59
2024/01/15 10:15:37;;;;;;;7.90;1.73;;;;;;;;;;5101971;27;20572;-59
2024/01/15 10:18:04;;;;;;;20.42;9.90;;;;;;;;;;5101726;27;20154;-60
2024/01/15 10:20:32;;;;;;;14.68;3.75;;;;;;;;;;5102127;27;20418;-58
2024/01/15 10:22:58;;;;;;;5.97;1.95;;;;;;;;;;5102945;27;20056;-58
2024/01/15 10:25:25;;;;;;;8.77;2.15;;;;;;;;;;5104257;27;21492;-56
2024/01/15 10:27:59;;;;;;;7.05;3.22;;;;;;;;;;5104282;27;20088;-59
2024/01/15 10:30:25;;;;;;;10.13;3.38;;;;;;;;;;5101251;27;20090;-58
2024/01/15 10:32:59;;;;;;;14.30;3.95;;;;;;;;;;5101496;27;20129;-59
2024/01/15 10:35:27;;;;;;;27.17;10.85;;;;;;;;;;5104328;27;20558;-59
2024/01/15 10:37:53;;;;;;;23.65;14.15;;;;;;;;;;5102574;27;20048;-59
2024/01/15 10:40:20;;;;;;;10.98;5.15;;;;;;;;;;5102304;27;20052;-60
2024/01/15 10:42:47;;;;;;;9.88;4.10;;;;;;;;;;5102682;27;20476;-59
2024/01/15 10:45:14;;;;;;;14.82;3.03;;;;;;;;;;5101696;27;20059;-58
2024/01/15 10:47:41;;;;;;;10.85;3.47;;;;;;;;;;5103077;27;20555;-58
2024/01/15 10:50:08;;;;;;;13.10;3.20;;;;;;;;;;5105968;27;20055;-58
2024/01/15 10:52:35;;;;;;;11.50;6.88;;;;;;;;;;5105211;27;20064;-58
2024/01/15 10:55:03;;;;;;;17.25;6.38;;;;;;;;;;5105814;27;20425;-59
2024/01/15 10:57:39;;;;;;;10.82;3.10;;;;;;;;;;5086990;28;20057;-59
2024/01/15 11:00:06;;;;;;;9.27;2.53;;;;;;;;;;5105454;27;20074;-58
2024/01/15 11:02:34;;;;;;;12.98;3.78;;;;;;;;;;5104814;27;20110;-58
2024/01/15 11:05:00;;;;;;;20.35;10.02;;;;;;;;;;5112041;27;20540;-58
2024/01/15 11:07:29;;;;;;;9.65;3.60;;;;;;;;;;5114296;27;20052;-59
2024/01/15 11:09:57;;;;;;;10.07;3.83;;;;;;;;;;5110355;27;20062;-57
2024/01/15 11:12:24;;;;;;;12.70;3.10;;;;;;;;;;5105808;27;20078;-59
2024/01/15 11:14:51;;;;;;;7.13;1.70;;;;;;;;;;5111683;27;20054;-57
2024/01/15 11:17:17;;;;;;;19.73;6.07;;;;;;;;;;5108289;27;20793;-59
2024/01/15 11:19:45;;;;;;;4.20;1.88;;;;;;;;;;5106355;27;20059;-58
2024/01/15 11:22:33;;;;;;;4.70;1.20;;;;;;;;;;5113170;27;20871;-59
2024/01/15 11:25:12;;;;;;;7.95;2.13;;;;;;;;;;5095040;27;20599;-59
2024/01/15 11:27:43;;;;;;;5.72;1.30;;;;;;;;;;5107900;27;20152;-58
2024/01/15 11:30:12;;;;;;;18.10;10.65;;;;;;;;;;5095269;27;20063;-59
2024/01/15 11:32:43;;;;;;;16.45;10.05;;;;;;;;;;5093263;28;20119;-59
2024/01/15 11:35:10;;;;;;;16.83;12.55;;;;;;;;;;5106071;27;20131;-58
2024/01/15 11:37:52;;;;;;;6.28;4.40;;;;;;;;;;5104861;27;20048;-59
2024/01/15 11:40:32;;;;;;;5.10;3.85;;;;;;;;;;5102194;27;20052;-58
2024/01/15 11:42:59;;;;;;;3.20;1.20;;;;;;;;;;5104909;27;20123;-59
2024/01/15 11:45:26;;;;;;;5.53;2.33;;;;;;;;;;5104482;27;20056;-57
2024/01/15 11:48:03;;;;;;;6.85;3.20;;;;;;;;;;5102173;27;20075;-58
2024/01/15 11:50:33;;;;;;;4.28;1.40;;;;;;;;;;5105649;27;20071;-58
2024/01/15 11:53:01;;;;;;;2.63;0.90;;;;;;;;;;5104176;27;20060;-57
2024/01/15 11:55:37;;;;;;;5.95;4.07;;;;;;;;;;5104227;27;20052;-58
2024/01/15 11:58:08;;;;;;;7.80;3.28;;;;;;;;;;5104146;27;20077;-58
2024/01/15 12:00:34;;;;;;;5.90;1.48;;;;;;;;;;5102748;27;20083;-58
2024/01/15 12:03:02;;;;;;;1.73;1.13;;;;;;;;;;5104952;27;20056;-58
2024/01/15 12:05:29;;;;;;;5.40;3.50;;;;;;;;;;5104195;27;20067;-59
2024/01/15 12:07:55;;;;;;;50.85;20.42;;;;;;;;;;5104246;27;20052;-59
2024/01/15 12:10:21;;;;;;;9.35;3.80;;;;;;;;;;5104832;27;20052;-58
2024/01/15 12:12:48;;;;;;;6.38;2.15;;;;;;;;;;5104898;27;20122;-57
2024/01/15 12:15:15;;;;;;;1.73;1.23;;;;;;;;;;5112125;27;20052;-59
2024/01/15 12:17:41;;;;;;;6.95;2.50;;;;;;;;;;5105439;27;20407;-59
2024/01/15 12:20:08;;;;;;;4.88;1.73;;;;;;;;;;5112078;27;20052;-61
2024/01/15 12:22:34;;;;;;;4.47;1.55;;;;;;;;;;5121809;27;20143;-60
2024/01/15 12:25:22;;;;;;;4.13;1.30;;;;;;;;;;5093829;27;20131;-60
2024/01/15 12:27:48;;;;;;;6.40;1.42;;;;;;;;;;5104005;27;20176;-60
2024/01/15 12:30:15;;;;;;;4.65;1.73;;;;;;;;;;5112045;27;20140;-59
2024/01/15 12:32:42;;;;;;;3.28;1.50;;;;;;;;;;5119167;27;20611;-60
2024/01/15 12:35:09;;;;;;;5.03;1.10;;;;;;;;;;5104579;27;20063;-60
2024/01/15 12:37:37;;;;;;;7.68;1.20;;;;;;;;;;5103417;27;20533;-59
2024/01/15 12:40:06;;;;;;;2.22;0.82;;;;;;;;;;5109809;27;20151;-59
2024/01/15 12:42:33;;;;;;;3.47;1.15;;;;;;;;;;5108287;27;20052;-59
2024/01/15 12:45:00;;;;;;;8.25;1.33;;;;;;;;;;5103721;27;20631;-60
2024/01/15 12:47:26;;;;;;;6.60;1.42;;;;;;;;;;5101624;28;20052;-59
2024/01/15 12:49:55;;;;;;;5.45;1.60;;;;;;;;;;5104208;27;20132;-59
2024/01/15 12:52:35;;;;;;;4.75;1.75;;;;;;;;;;5102914;27;20060;-60
2024/01/15 12:55:01;;;;;;;11.45;3.22;;;;;;;;;;5104101;27;20936;-59
2024/01/15 12:57:28;;;;;;;7.20;4.20;;;;;;;;;;5103303;27;20051;-59
2024/01/15 12:59:55;;;;;;;8.18;3.92;;;;;;;;;;5103719;27;20129;-60
2024/01/15 13:02:21;;;;;;;12.40;3.20;;;;;;;;;;5103579;27;20127;-59
2024/01/15 13:04:48;;;;;;;3.97;1.65;;;;;;;;;;5103549;27;20562;-59
2024/01/15 13:07:14;;;;;;;11.57;4.72;;;;;;;;;;5103139;27;20097;-59
2024/01/15 13:09:41;;;;;;;8.18;7.05;;;;;;;;;;5102945;27;20469;-59
2024/01/15 13:12:07;;;;;;;8.27;2.88;;;;;;;;;;5103655;27;20048;-59
2024/01/15 13:14:34;;;;;;;8.52;3.35;;;;;;;;;;5108442;27;20051;-58
2024/01/15 13:17:00;;;;;;;6.20;2.30;;;;;;;;;;5112084;27;20055;-60
2024/01/15 13:19:27;;;;;;;13.48;12.20;;;;;;;;;;5102698;27;20157;-59
2024/01/15 13:21:54;;;;;;;10.85;5.60;;;;;;;;;;5103433;27;20078;-59
2024/01/15 13:24:21;;;;;;;14.60;12.27;;;;;;;;;;5103043;27;20079;-58
2024/01/15 13:26:47;;;;;;;10.43;5.93;;;;;;;;;;5102522;27;20055;-59
2024/01/15 13:29:14;;;;;;;10.98;6.10;;;;;;;;;;5103288;27;20510;-59
2024/01/15 13:31:41;;;;;;;11.80;7.78;;;;;;;;;;5111701;27;20151;-58
2024/01/15 13:34:09;;;;;;;10.25;5.82;;;;;;;;;;5103859;27;20076;-59
2024/01/15 13:36:35;;;;;;;14.05;6.70;;;;;;;;;;5102706;27;20125;-59
2024/01/15 13:39:02;;;;;;;15.20;13.48;;;;;;;;;;5103173;27;20093;-58
2024/01/15 13:41:29;;;;;;;21.35;14.55;;;;;;;;;;5102321;27;20133;-59
2024/01/15 13:43:55;;;;;;;9.73;5.75;;;;;;;;;;5102803;27;20048;-60
2024/01/15 13:46:23;;;;;;;9.48;3.78;;;;;;;;;;5110781;27;20056;-58
2024/01/15 13:48:49;;;;;;;5.75;2.90;;;;;;;;;;5103568;28;20068;-59
2024/01/15 13:51:16;;;;;;;9.07;2.03;;;;;;;;;;5103106;27;20056;-59
2024/01/15 13:53:46;;;;;;;9.90;4.75;;;;;;;;;;5102920;27;20513;-60
2024/01/15 13:56:12;;;;;;;8.43;4.40;;;;;;;;;;5110420;27;20507;-58
2024/01/15 13:58:39;;;;;;;9.13;3.42;;;;;;;;;;5103083;27;20179;-59
2024/01/15 14:01:06;;;;;;;12.90;8.77;;;;;;;;;;5113520;27;20050;-58
2024/01/15 14:03:33;;;;;;;6.05;2.53;;;;;;;;;;5117945;27;20379;-59
2024/01/15 14:06:02;;;;;;;5.85;3.25;;;;;;;;;;5102936;27;20051;-58
2024/01/15 14:08:29;;;;;;;5.40;2.40;;;;;;;;;;5102933;27;20052;-59
2024/01/15 14:10:56;;;;;;;7.63;2.80;;;;;;;;;;5102078;27;20570;-59
2024/01/15 14:13:23;;;;;;;12.55;4.30;;;;;;;;;;5102612;27;20135;-58
2024/01/15 14:15:49;;;;;;;7.90;3.88;;;;;;;;;;5100073;27;20067;-59
2024/01/15 14:18:16;;;;;;;10.23;3.05;;;;;;;;;;5098715;27;20048;-60
2024/01/15 14:20:45;;;;;;;7.85;3.05;;;;;;;;;;5096258;27;20054;-59
2024/01/15 14:23:13;;;;;;;3.97;1.83;;;;;;;;;;5101112;27;20051;-59
2024/01/15 14:25:40;;;;;;;7.97;3.10;;;;;;;;;;5097853;27;20047;-59
2024/01/15 14:28:06;;;;;;;8.77;2.15;;;;;;;;;;5104673;27;20129;-59
2024/01/15 14:30:33;;;;;;;7.57;1.98;;;;;;;;;;5086678;27;20055;-59
2024/01/15 14:32:59;;;;;;;5.63;2.05;;;;;;;;;;5101624;27;20056;-59
2024/01/15 14:35:26;;;;;;;7.38;3.90;;;;;;;;;;5101890;27;20048;-60
2024/01/15 14:37:52;;;;;;;14.07;2.60;;;;;;;;;;5101515;27;20080;-59